Race Coverage Navigation

TS # 45 / West Union, WV  2019

 


TS STATS
TS Distance 85.6 
Total Distance 2673.44 
Miles To Go 368.38 
TS Climbing 2652 
Total Climbing
TS  Elevation
TS  Net Elevation 4199 
Map Filename Open Map 
Directions Filename  
Latitude 39.29 
Longitude -80.73 
Google Map  TimeStation Map 


TS Arrival Data
Arr Ord  #/Name Arrival DT TS Dst Avg This TS Avg Overall
 1 377 - Christoph Strasser  06/18/2019 18:52 85.6  15.47  15.71 
 2 279 - Marko Baloh  06/19/2019 22:47 85.6  14.93  13.49 
 3 609 - Jakob Olsen  06/20/2019 2:32 85.6  11.39  13.22 
 4 T411 - team alpha - tischlerei groemmer  06/20/2019 13:24 85.6  23.56  22.65 
 5 T800 - Backstedt Racing Project 14  06/20/2019 13:52 85.6  24.34  22.58 
 6 617 - SOLO.kiwi (Craig Harper)  06/20/2019 18:14 85.6  10.59  12.26 
 7 T404 - Gentlemen of speed  06/20/2019 20:47 85.6  22.43  21.29 
 8 367 - Daniela Genovesi  06/20/2019 21:00 85.6  12.87  12.1 
 9 329 - Peter Oyler  06/20/2019 23:06 85.6  11.78  12.02 
 10 416 - Leah Goldstein  06/21/2019 0:06 85.6  10.84  11.94 
 11 623 - Ultra Paka Racing Team (Daniel Polman)  06/21/2019 0:35 85.6  11.67  11.91 
 12 T401 - Data Techniques powered by Networks Centre  06/21/2019 1:13 85.6  14.67  20.56 
 13 T805 - Team Oceanside  06/21/2019 1:30 85.6  22.04  20.58 
 14 T807 - Team ZOE International  06/21/2019 2:30 85.6  20.96  20.42 
 15 T407 - Julian Becker   06/21/2019 4:10 85.6  19.24  20.12 
 16 T201 - EAT WELL  06/21/2019 4:35 85.6  19.83  20.02 
 17 622 - Thomas Odom-Team Kyle Pease Foundation  06/21/2019 5:30 85.6  8.1  11.66 
 18 T802 - Scorchers  06/21/2019 5:48 85.6  18.28  19.91 
 19 615 - Philipp Amhof  06/21/2019 7:55 85.6  9.55  11.54 
 20 T416 - Team Rotary Raams Polio  06/21/2019 8:02 85.6  19.83  19.57 
 21 T804 - Team FSHD Skyland Trail  06/21/2019 8:13 85.6  19.45  19.56 
 22 611 - Marcelo Soares " MIXIRICA "  06/21/2019 8:56 85.6  7.9  11.49 
 23 T408 - Radeln-fuer-Kinder (Cycling-for-Kids)  06/21/2019 9:32 85.6  20.06  19.34 
 24 612 - Markus K. Brandl  06/21/2019 12:16 85.6  6.69  11.33 
 25 T400 - Cantastic4  06/21/2019 12:17 85.6  18.95  18.94 
 26 T808 - Antonia's Friends 2019  06/21/2019 12:18 85.6  19.91  19 
 27 603 - Alan Bradley  06/21/2019 13:08 85.6  11.12  11.29 
 28 T406 - Operation Walk Midwest  06/21/2019 14:59 85.6  20.14  18.6 
 29 510 - John C. Tarlton  06/21/2019 15:37 85.6  11.19  11.18 
 30 529 - Isa Pulver  06/21/2019 15:42 85.6  13.48  11.16 
 31 T418 - The Opportunists  06/21/2019 16:20 85.6  19.6  18.45 
 32 442 - Joe Barr  06/21/2019 17:06 85.6  13.45  11.11 
 33 411 - Geoff Brunner  06/21/2019 18:01 85.6  13.14  11.07 
 34 559 - Team Martin RAAM 2019 (Martin Bergmeister)  06/21/2019 19:43 85.6  11.75  10.99 
 35 T410 - Soap-Aid  06/21/2019 22:40 85.6  17.06  17.67 
 36 T803 - Team EndoPark  06/22/2019 2:22 85.6  17.23  17.27 
 37 T412 - Team Aspect  06/22/2019 2:29 85.6  20.79  17.24 
 38 T414 - Brazil Nuts  06/22/2019 3:08 85.6  17.12  17.17 
 39 618 - GREGORY ROBINSON  06/22/2019 3:30 85.6  9.16  10.64 
 40 610 - Kabir Rachure  06/22/2019 3:47 85.6  9.27  10.63 
 41 568 - Alexandra Meixner  06/22/2019 5:17 85.6  8.43  10.56 
 42 T405 - High Rollers  06/22/2019 5:30 85.6  15.24  16.89 
 43 T202 - Integra Medical - BAA Racing  06/22/2019 5:36 85.6  15.47  16.86 
 44 T415 - TEAM FIRE VELO 935  06/22/2019 6:00 85.6  15.9  16.86 
 45 T413 - TEAM BRASIL - SKIPPER  06/22/2019 8:53 85.6  16.2  16.55 
 46 T204 - Lucan CRC  06/22/2019 9:27 85.6  15.75  16.46 
 47 T206 - Project Linear Acceleration  06/22/2019 9:41 85.6  14.72  16.44 
 48 604 - Chieko Ozawa  06/22/2019 9:59 85.6  6.88  10.36 
 49 T402 - EA/WFP RAAM Team  06/22/2019 10:37 85.6  15.02  16.36 
 50 T200 - AIR RELAX GoPro TEAM BRASIL  06/22/2019 11:01 85.6  18.21  16.3 
 51 T801 - Mind Over Matter  06/22/2019 13:45 85.6  15.61  16.08 
 52 399 - Valerio Zamboni  06/22/2019 14:30 85.6  9.62  10.21 
 53 T806 - Team SuperMarrow  06/22/2019 15:00 85.6  15.11  15.97 
 54 T417 - Team4RAAM 2019 powered by TGW Living Logistics  06/22/2019 15:38 85.6  59.72  15.9 
 55 T403 - EKJ Denmark  06/22/2019 18:02 85.6  15.02  15.65 
 56 424 - Team i RON man Veterans supporting Veterans  06/22/2019 19:05 85.6  7.71  10.03 
 57 161 - Seana Hogan  06/23/2019 2:41 85.6  6.75  9.74 
 58 T409 - Serpentine Golden Girls  06/23/2019 7:34 85.6  13.38  14.51 
 59 T207 - Team Life Time  06/23/2019 14:17 85.6  14.55  13.98 
 60 T210 - Bike Wine Team  06/23/2019 16:14 85.6  13.55  13.85